Time;durP1;ratioP1;P1;durP2;ratioP2;P2;SDS_P1;SDS_P2;PMS_P1;PMS_P2;Temp;Humidity;BMP_temperature;BMP_pressure;BME280_temperature;BME280_humidity;BME280_pressure;Samples;Min_cycle;Max_cycle;Signal;HPM_P1;HPM_P2
2021/09/06 00:01:36;;;;;;;5.00;3.38;;;;;;;;;;4978100;28;20037;-74
2021/09/06 00:04:02;;;;;;;6.30;3.25;;;;;;;;;;4974012;28;20113;-76
2021/09/06 00:06:28;;;;;;;5.65;3.15;;;;;;;;;;4975441;28;20100;-74
2021/09/06 00:08:54;;;;;;;5.32;3.20;;;;;;;;;;4980810;28;20043;-75
2021/09/06 00:11:22;;;;;;;4.97;3.55;;;;;;;;;;4977055;28;20039;-75
2021/09/06 00:13:58;;;;;;;4.68;3.20;;;;;;;;;;4972362;28;20043;-76
2021/09/06 00:16:25;;;;;;;4.75;3.15;;;;;;;;;;4979809;28;20081;-76
2021/09/06 00:18:51;;;;;;;6.70;3.15;;;;;;;;;;4979936;28;20026;-76
2021/09/06 00:21:22;;;;;;;5.68;3.33;;;;;;;;;;4975945;28;20037;-75
2021/09/06 00:23:48;;;;;;;6.00;3.45;;;;;;;;;;4973189;28;20022;-75
2021/09/06 00:26:14;;;;;;;4.40;3.35;;;;;;;;;;4974183;28;20027;-75
2021/09/06 00:28:40;;;;;;;4.43;3.35;;;;;;;;;;4980535;28;20520;-75
2021/09/06 00:31:06;;;;;;;5.88;3.33;;;;;;;;;;4979684;28;20027;-75
2021/09/06 00:33:32;;;;;;;9.48;3.60;;;;;;;;;;4973062;28;20055;-75
2021/09/06 00:35:58;;;;;;;5.95;2.85;;;;;;;;;;4976443;28;20054;-75
2021/09/06 00:38:25;;;;;;;4.40;2.67;;;;;;;;;;4979263;28;20113;-75
2021/09/06 00:40:51;;;;;;;6.03;3.35;;;;;;;;;;4977734;28;20034;-76
2021/09/06 00:43:18;;;;;;;4.97;3.25;;;;;;;;;;4977086;28;20473;-75
2021/09/06 00:45:47;;;;;;;5.63;2.95;;;;;;;;;;4975674;28;20385;-75
2021/09/06 00:48:17;;;;;;;4.35;3.25;;;;;;;;;;4975845;28;20083;-73
2021/09/06 00:50:43;;;;;;;4.90;3.28;;;;;;;;;;4972874;28;20456;-73
2021/09/06 00:53:09;;;;;;;6.75;2.85;;;;;;;;;;4974650;28;20121;-73
2021/09/06 00:55:35;;;;;;;4.78;3.38;;;;;;;;;;4976517;28;20056;-72
2021/09/06 00:58:02;;;;;;;4.70;3.10;;;;;;;;;;4976308;28;20078;-73
2021/09/06 01:00:28;;;;;;;7.47;2.78;;;;;;;;;;4978532;28;20027;-76
2021/09/06 01:02:54;;;;;;;8.85;3.40;;;;;;;;;;4977707;28;20034;-76
2021/09/06 01:05:20;;;;;;;5.60;3.22;;;;;;;;;;4960438;28;20450;-73
2021/09/06 01:07:46;;;;;;;5.90;3.08;;;;;;;;;;4977748;28;20058;-75
2021/09/06 01:10:13;;;;;;;4.18;2.80;;;;;;;;;;4974488;28;20034;-73
2021/09/06 01:12:40;;;;;;;6.47;3.00;;;;;;;;;;4977961;28;20468;-73
2021/09/06 01:15:06;;;;;;;6.80;3.17;;;;;;;;;;4979495;28;20182;-73
2021/09/06 01:17:33;;;;;;;5.75;2.92;;;;;;;;;;4964239;28;20163;-74
2021/09/06 01:19:59;;;;;;;5.32;2.95;;;;;;;;;;4980216;28;20031;-73
2021/09/06 01:22:27;;;;;;;5.07;3.00;;;;;;;;;;4967100;28;20454;-75
2021/09/06 01:24:54;;;;;;;4.07;3.08;;;;;;;;;;4966960;28;20560;-75
2021/09/06 01:27:22;;;;;;;4.80;2.97;;;;;;;;;;4973946;28;20030;-74
2021/09/06 01:29:48;;;;;;;5.38;3.08;;;;;;;;;;4981196;28;20026;-74
2021/09/06 01:32:22;;;;;;;6.30;3.20;;;;;;;;;;4982365;28;20047;-74
2021/09/06 01:34:55;;;;;;;7.72;3.08;;;;;;;;;;4948728;28;20023;-74
2021/09/06 01:37:29;;;;;;;4.45;2.95;;;;;;;;;;4983377;28;20070;-74
2021/09/06 01:39:55;;;;;;;3.92;2.83;;;;;;;;;;4965668;28;20022;-74
2021/09/06 01:42:21;;;;;;;9.20;3.03;;;;;;;;;;4972870;28;20042;-74
2021/09/06 01:44:47;;;;;;;6.18;2.92;;;;;;;;;;4964989;28;20085;-74
2021/09/06 01:47:14;;;;;;;5.30;3.03;;;;;;;;;;4973203;28;20111;-74
2021/09/06 01:49:40;;;;;;;4.80;3.10;;;;;;;;;;4967713;28;20846;-74
2021/09/06 01:52:06;;;;;;;3.95;2.92;;;;;;;;;;4967679;28;20046;-75
2021/09/06 01:54:32;;;;;;;3.97;3.05;;;;;;;;;;4978845;28;20042;-75
2021/09/06 01:56:58;;;;;;;5.60;2.85;;;;;;;;;;4973019;28;20085;-75
2021/09/06 01:59:42;;;;;;;5.38;2.85;;;;;;;;;;4973146;28;20038;-74
2021/09/06 02:02:08;;;;;;;;;;;;;;;;;;4966769;28;20034;-75
2021/09/06 02:04:34;;;;;;;8.48;3.15;;;;;;;;;;4980321;28;19906;-75
2021/09/06 02:07:03;;;;;;;4.75;2.70;;;;;;;;;;4977361;28;20030;-74
2021/09/06 02:09:29;;;;;;;7.72;3.13;;;;;;;;;;4979409;28;20034;-73
2021/09/06 02:12:00;;;;;;;5.10;2.85;;;;;;;;;;4965655;28;20038;-74
2021/09/06 02:14:26;;;;;;;5.45;3.00;;;;;;;;;;4949055;28;20030;-75
2021/09/06 02:16:52;;;;;;;6.68;2.97;;;;;;;;;;4978049;28;20101;-75
2021/09/06 02:19:18;;;;;;;7.25;3.00;;;;;;;;;;4962318;28;20154;-74
2021/09/06 02:21:48;;;;;;;4.72;3.10;;;;;;;;;;4977978;28;20034;-74
2021/09/06 02:24:15;;;;;;;6.38;2.88;;;;;;;;;;4959774;28;20034;-74
2021/09/06 02:26:41;;;;;;;5.95;2.90;;;;;;;;;;4984405;28;20034;-74
2021/09/06 02:29:09;;;;;;;4.72;3.40;;;;;;;;;;4984294;28;20436;-74
2021/09/06 02:31:38;;;;;;;4.82;3.20;;;;;;;;;;4949748;28;20031;-74
2021/09/06 02:34:06;;;;;;;6.00;2.90;;;;;;;;;;4979268;28;20045;-74
2021/09/06 02:36:34;;;;;;;5.75;3.25;;;;;;;;;;4953542;28;20027;-73
2021/09/06 02:39:00;;;;;;;5.72;3.10;;;;;;;;;;4968475;28;20102;-74
2021/09/06 02:41:26;;;;;;;4.50;2.97;;;;;;;;;;4975029;28;20540;-74
2021/09/06 02:43:52;;;;;;;4.60;2.85;;;;;;;;;;4975802;28;20468;-74
2021/09/06 02:46:18;;;;;;;4.43;3.10;;;;;;;;;;4966358;28;20420;-74
2021/09/06 02:48:47;;;;;;;4.72;2.92;;;;;;;;;;4983276;28;20071;-75
2021/09/06 02:51:13;;;;;;;6.75;3.13;;;;;;;;;;4974572;28;20027;-74
2021/09/06 02:53:39;;;;;;;5.88;2.90;;;;;;;;;;4981157;28;20026;-74
2021/09/06 02:56:05;;;;;;;4.38;2.90;;;;;;;;;;4973250;28;20027;-74
2021/09/06 02:58:32;;;;;;;4.60;2.83;;;;;;;;;;4981281;28;20037;-74
2021/09/06 03:01:06;;;;;;;3.75;2.85;;;;;;;;;;4987765;28;20027;-75
2021/09/06 03:03:37;;;;;;;4.18;2.60;;;;;;;;;;4975137;28;20038;-75
2021/09/06 03:06:04;;;;;;;4.40;2.92;;;;;;;;;;4979625;28;20019;-74
2021/09/06 03:08:34;;;;;;;3.90;2.55;;;;;;;;;;4984302;28;20039;-75
2021/09/06 03:11:09;;;;;;;4.82;2.92;;;;;;;;;;4979085;28;20066;-72
2021/09/06 03:13:35;;;;;;;4.60;2.85;;;;;;;;;;4981076;28;20033;-74
2021/09/06 03:16:04;;;;;;;6.63;2.92;;;;;;;;;;4981779;28;20019;-73
2021/09/06 03:18:30;;;;;;;4.55;2.92;;;;;;;;;;4979634;28;20035;-73
2021/09/06 03:20:56;;;;;;;7.00;3.00;;;;;;;;;;4981978;28;20058;-75
2021/09/06 03:23:24;;;;;;;5.90;3.08;;;;;;;;;;4970784;28;20354;-74
2021/09/06 03:25:50;;;;;;;4.28;2.83;;;;;;;;;;4979503;28;20150;-75
2021/09/06 03:28:16;;;;;;;5.78;3.40;;;;;;;;;;4977786;28;20419;-75
2021/09/06 03:30:42;;;;;;;5.38;2.95;;;;;;;;;;4978042;28;20393;-75
2021/09/06 03:33:13;;;;;;;5.57;3.00;;;;;;;;;;4978892;28;20421;-74
2021/09/06 03:35:39;;;;;;;5.57;3.00;;;;;;;;;;4965189;28;20023;-74
2021/09/06 03:38:20;;;;;;;4.60;2.75;;;;;;;;;;4968031;29;20420;-74
2021/09/06 03:40:47;;;;;;;4.80;2.97;;;;;;;;;;4973925;28;20026;-74
2021/09/06 03:43:13;;;;;;;6.68;3.00;;;;;;;;;;4972281;28;20023;-74
2021/09/06 03:45:39;;;;;;;6.45;3.25;;;;;;;;;;4981446;28;20033;-75
2021/09/06 03:48:05;;;;;;;4.40;3.08;;;;;;;;;;4980812;28;20053;-74
2021/09/06 03:50:31;;;;;;;5.22;2.80;;;;;;;;;;4978416;28;20053;-74
2021/09/06 03:52:57;;;;;;;3.95;2.55;;;;;;;;;;4978020;28;20058;-74
2021/09/06 03:55:23;;;;;;;4.75;3.10;;;;;;;;;;4979751;28;20042;-74
2021/09/06 03:57:56;;;;;;;4.82;3.13;;;;;;;;;;4984765;28;20027;-75
2021/09/06 04:00:25;;;;;;;5.03;3.05;;;;;;;;;;4968410;28;20023;-75
2021/09/06 04:02:51;;;;;;;6.10;3.03;;;;;;;;;;4973098;28;20062;-75
2021/09/06 04:05:17;;;;;;;4.55;3.20;;;;;;;;;;4985397;28;20038;-75
2021/09/06 04:07:43;;;;;;;6.50;3.25;;;;;;;;;;4987093;28;20030;-75
2021/09/06 04:10:10;;;;;;;7.78;3.33;;;;;;;;;;4995333;28;20046;-76
2021/09/06 04:12:36;;;;;;;11.35;3.30;;;;;;;;;;4966160;28;20047;-75
2021/09/06 04:15:03;;;;;;;6.40;2.97;;;;;;;;;;4965468;28;20027;-75
2021/09/06 04:17:39;;;;;;;6.70;2.90;;;;;;;;;;4973200;28;20509;-76
2021/09/06 04:20:05;;;;;;;5.47;2.90;;;;;;;;;;4977375;28;20038;-75
2021/09/06 04:22:32;;;;;;;7.10;3.10;;;;;;;;;;4968291;28;20019;-75
2021/09/06 04:25:02;;;;;;;6.93;3.47;;;;;;;;;;4977639;28;20381;-76
2021/09/06 04:27:53;;;;;;;4.80;3.03;;;;;;;;;;4939447;29;20772;-75
2021/09/06 04:30:19;;;;;;;6.25;3.00;;;;;;;;;;4939683;29;20043;-75
2021/09/06 04:32:45;;;;;;;9.93;3.20;;;;;;;;;;4940744;29;20052;-76
2021/09/06 04:35:14;;;;;;;6.47;3.10;;;;;;;;;;4946404;29;20091;-74
2021/09/06 04:37:45;;;;;;;4.82;2.90;;;;;;;;;;4939001;29;20501;-75
2021/09/06 04:40:12;;;;;;;7.05;3.35;;;;;;;;;;4923076;29;20019;-72
2021/09/06 04:42:38;;;;;;;5.70;3.25;;;;;;;;;;4940628;29;20162;-74
2021/09/06 04:45:04;;;;;;;5.93;3.50;;;;;;;;;;4939651;29;20094;-75
2021/09/06 04:47:30;;;;;;;5.20;3.30;;;;;;;;;;4938990;29;20047;-74
2021/09/06 04:49:56;;;;;;;6.93;3.20;;;;;;;;;;4951316;29;20032;-74
2021/09/06 04:52:22;;;;;;;7.63;3.40;;;;;;;;;;4934559;29;20038;-74
2021/09/06 04:54:48;;;;;;;4.85;2.95;;;;;;;;;;4944020;29;20103;-73
2021/09/06 04:57:17;;;;;;;6.78;3.28;;;;;;;;;;4935124;29;20027;-75
2021/09/06 04:59:43;;;;;;;4.40;3.13;;;;;;;;;;4968636;28;20038;-67
2021/09/06 05:02:09;;;;;;;4.93;3.00;;;;;;;;;;4975580;28;20031;-68
2021/09/06 05:04:35;;;;;;;6.75;3.10;;;;;;;;;;4976420;28;20035;-75
2021/09/06 05:07:02;;;;;;;7.72;3.20;;;;;;;;;;4973712;28;20030;-74
2021/09/06 05:09:49;;;;;;;7.03;3.28;;;;;;;;;;4981586;28;20046;-73
2021/09/06 05:12:16;;;;;;;5.70;3.13;;;;;;;;;;4966426;28;20026;-74
2021/09/06 05:14:42;;;;;;;4.93;3.10;;;;;;;;;;4960825;28;20033;-71
2021/09/06 05:17:08;;;;;;;10.38;3.30;;;;;;;;;;4975812;28;20089;-74
2021/09/06 05:19:34;;;;;;;9.43;3.50;;;;;;;;;;4974480;28;20182;-74
2021/09/06 05:22:00;;;;;;;7.93;3.25;;;;;;;;;;4973811;28;20039;-66
2021/09/06 05:24:26;;;;;;;5.07;3.13;;;;;;;;;;4971985;28;20158;-74
2021/09/06 05:26:53;;;;;;;6.13;3.30;;;;;;;;;;4972121;28;20026;-73
2021/09/06 05:29:19;;;;;;;8.25;3.70;;;;;;;;;;4967903;28;20035;-70
2021/09/06 05:31:45;;;;;;;5.65;3.45;;;;;;;;;;4973346;28;20097;-74
2021/09/06 05:34:13;;;;;;;7.55;3.28;;;;;;;;;;4952067;28;20039;-72
2021/09/06 05:36:39;;;;;;;6.05;3.50;;;;;;;;;;4976009;28;20022;-70
2021/09/06 05:39:06;;;;;;;6.35;3.10;;;;;;;;;;4973209;28;20089;-71
2021/09/06 05:41:32;;;;;;;8.55;3.42;;;;;;;;;;4966313;28;20030;-70
2021/09/06 05:44:30;;;;;;;7.32;3.60;;;;;;;;;;4973872;28;20041;-70
2021/09/06 05:47:00;;;;;;;8.75;3.40;;;;;;;;;;4963601;28;20060;-71
2021/09/06 05:50:29;;;;;;;;;;;;;;;;;;;;;
2021/09/06 05:53:07;;;;;;;9.65;3.80;;;;;;;;;;4931057;29;20115;-71
2021/09/06 05:56:21;;;;;;;;;;;;;;;;;;;;;
2021/09/06 05:58:42;;;;;;;15.82;4.03;;;;;;;;;;4899419;29;20108;-69
2021/09/06 06:01:08;;;;;;;11.82;3.75;;;;;;;;;;4897667;29;20053;-69
2021/09/06 06:03:34;;;;;;;11.55;4.10;;;;;;;;;;4895191;29;20127;-68
2021/09/06 06:06:00;;;;;;;10.55;4.22;;;;;;;;;;4886902;29;20032;-71
2021/09/06 06:08:26;;;;;;;6.22;3.70;;;;;;;;;;4893296;29;20032;-68
2021/09/06 06:10:52;;;;;;;16.35;4.63;;;;;;;;;;4894590;29;20116;-70
2021/09/06 06:13:24;;;;;;;10.32;4.10;;;;;;;;;;4905852;29;20041;-72
2021/09/06 06:16:06;;;;;;;10.13;4.60;;;;;;;;;;4898718;29;20048;-71
2021/09/06 06:18:33;;;;;;;8.32;4.38;;;;;;;;;;4893818;29;20040;-70
2021/09/06 06:21:17;;;;;;;9.32;5.22;;;;;;;;;;4896689;29;20036;-71
2021/09/06 06:23:43;;;;;;;7.70;5.00;;;;;;;;;;4897314;29;20235;-71
2021/09/06 06:26:09;;;;;;;15.38;4.80;;;;;;;;;;4896962;29;20045;-72
2021/09/06 06:28:35;;;;;;;7.72;4.80;;;;;;;;;;4880510;29;20044;-70
2021/09/06 06:31:03;;;;;;;10.15;5.10;;;;;;;;;;4890553;29;20582;-69
2021/09/06 06:33:30;;;;;;;15.35;5.40;;;;;;;;;;4892769;29;20139;-71
2021/09/06 06:35:57;;;;;;;13.75;5.20;;;;;;;;;;4946693;28;20402;-73
2021/09/06 06:38:23;;;;;;;11.48;5.88;;;;;;;;;;4983927;28;20470;-71
2021/09/06 06:40:49;;;;;;;9.68;5.68;;;;;;;;;;4981343;28;20119;-73
2021/09/06 06:43:18;;;;;;;11.82;5.70;;;;;;;;;;4975090;28;20033;-72
2021/09/06 06:45:44;;;;;;;15.52;5.80;;;;;;;;;;4976293;28;20023;-74
2021/09/06 06:48:10;;;;;;;23.70;6.32;;;;;;;;;;4965356;28;20035;-72
2021/09/06 06:51:05;;;;;;;11.05;5.72;;;;;;;;;;4961930;28;20043;-73
2021/09/06 06:53:31;;;;;;;8.25;5.65;;;;;;;;;;4962968;28;20065;-71
2021/09/06 06:55:57;;;;;;;9.20;5.35;;;;;;;;;;4975960;28;20034;-73
2021/09/06 06:58:45;;;;;;;11.63;5.03;;;;;;;;;;4974261;28;20064;-72
2021/09/06 07:01:11;;;;;;;10.35;5.20;;;;;;;;;;4955431;28;20026;-73
2021/09/06 07:04:05;;;;;;;8.55;5.28;;;;;;;;;;4971015;28;20035;-71
2021/09/06 07:06:57;;;;;;;8.50;5.50;;;;;;;;;;4876023;29;20044;-73
2021/09/06 07:15:24;;;;;;;15.40;5.53;;;;;;;;;;4854368;29;20128;-69
2021/09/06 07:20:59;;;;;;;17.92;5.65;;;;;;;;;;4824445;29;20038;-71
2021/09/06 07:23:52;;;;;;;10.75;5.25;;;;;;;;;;4822563;29;20558;-71
2021/09/06 07:26:45;;;;;;;12.32;5.90;;;;;;;;;;4820418;29;20136;-69
2021/09/06 07:29:34;;;;;;;13.75;6.20;;;;;;;;;;4818099;29;20058;-68
2021/09/06 07:32:07;;;;;;;12.13;5.70;;;;;;;;;;4805218;29;20633;-68
2021/09/06 07:38:24;;;;;;;11.88;5.78;;;;;;;;;;4796109;29;20125;-68
2021/09/06 07:43:54;;;;;;;12.40;5.40;;;;;;;;;;4767686;30;20040;-72
2021/09/06 07:46:20;;;;;;;13.05;5.55;;;;;;;;;;4750362;30;20123;-70
2021/09/06 07:48:54;;;;;;;11.93;5.90;;;;;;;;;;4727200;30;20064;-72
2021/09/06 07:51:20;;;;;;;10.05;5.63;;;;;;;;;;4732787;29;20066;-69
2021/09/06 07:53:51;;;;;;;12.50;5.75;;;;;;;;;;4786413;29;20035;-70
2021/09/06 07:56:17;;;;;;;10.60;5.70;;;;;;;;;;4786429;29;20047;-70
2021/09/06 07:58:47;;;;;;;11.45;6.00;;;;;;;;;;4805076;29;20042;-69
2021/09/06 08:01:13;;;;;;;20.38;6.60;;;;;;;;;;4847438;29;20046;-72
2021/09/06 08:04:15;;;;;;;10.05;5.53;;;;;;;;;;4840735;29;20049;-71
2021/09/06 08:06:41;;;;;;;10.43;6.32;;;;;;;;;;4844056;29;20133;-71
2021/09/06 08:09:08;;;;;;;13.63;5.90;;;;;;;;;;4841189;29;20433;-70
2021/09/06 08:11:47;;;;;;;13.50;6.05;;;;;;;;;;4843168;29;20036;-70
2021/09/06 08:14:20;;;;;;;19.30;6.38;;;;;;;;;;4876186;29;20044;-71
2021/09/06 08:17:01;;;;;;;17.52;5.78;;;;;;;;;;4895694;29;20447;-69
2021/09/06 08:19:38;;;;;;;11.02;5.60;;;;;;;;;;4895486;29;20045;-69
2021/09/06 08:22:33;;;;;;;16.58;6.13;;;;;;;;;;4930217;29;20094;-72
2021/09/06 08:25:16;;;;;;;13.52;5.80;;;;;;;;;;4904541;29;20860;-70
2021/09/06 08:28:07;;;;;;;13.45;5.90;;;;;;;;;;4909867;29;20091;-70
2021/09/06 08:30:44;;;;;;;13.60;5.80;;;;;;;;;;4897641;29;20041;-69
2021/09/06 08:33:10;;;;;;;17.25;6.13;;;;;;;;;;4917520;29;20142;-72
2021/09/06 08:35:41;;;;;;;14.07;7.00;;;;;;;;;;4943617;28;20048;-72
2021/09/06 08:38:07;;;;;;;11.88;6.85;;;;;;;;;;4943613;28;20055;-71
2021/09/06 08:40:36;;;;;;;11.60;5.95;;;;;;;;;;4943216;28;20038;-74
2021/09/06 08:43:04;;;;;;;11.85;6.47;;;;;;;;;;4934240;29;20035;-72
2021/09/06 08:45:31;;;;;;;13.32;6.32;;;;;;;;;;4952484;28;20046;-72
2021/09/06 08:47:58;;;;;;;14.27;6.28;;;;;;;;;;4952888;28;20046;-72
2021/09/06 08:50:24;;;;;;;14.50;6.78;;;;;;;;;;4952887;28;20089;-71
2021/09/06 08:52:56;;;;;;;13.73;6.50;;;;;;;;;;4951285;28;20073;-73
2021/09/06 08:55:22;;;;;;;14.73;6.20;;;;;;;;;;4938700;28;20039;-72
2021/09/06 08:57:48;;;;;;;25.83;6.32;;;;;;;;;;4944408;28;20163;-70
2021/09/06 09:00:29;;;;;;;12.70;6.45;;;;;;;;;;4941855;28;20036;-69
2021/09/06 09:03:11;;;;;;;16.90;6.90;;;;;;;;;;4968173;28;20074;-70
2021/09/06 09:05:39;;;;;;;9.07;6.13;;;;;;;;;;4971822;28;20034;-71
2021/09/06 09:08:05;;;;;;;12.60;6.00;;;;;;;;;;4974318;28;20035;-70
2021/09/06 09:13:34;;;;;;;14.88;6.03;;;;;;;;;;4951444;28;20123;-68
2021/09/06 09:16:01;;;;;;;13.55;6.32;;;;;;;;;;4952396;28;20092;-70
2021/09/06 09:18:28;;;;;;;11.65;6.15;;;;;;;;;;4951978;28;20035;-71
2021/09/06 09:21:01;;;;;;;14.98;6.32;;;;;;;;;;4951884;28;20118;-70
2021/09/06 09:23:36;;;;;;;20.38;6.38;;;;;;;;;;4943235;28;20027;-68
2021/09/06 09:26:02;;;;;;;11.93;6.50;;;;;;;;;;4950815;28;20110;-70
2021/09/06 09:28:29;;;;;;;14.20;7.07;;;;;;;;;;4951171;28;20077;-66
2021/09/06 09:31:13;;;;;;;16.83;6.57;;;;;;;;;;4939430;28;20410;-73
2021/09/06 09:34:08;;;;;;;13.73;5.78;;;;;;;;;;4950741;28;20131;-72
2021/09/06 09:36:52;;;;;;;11.07;5.95;;;;;;;;;;4935580;29;20035;-70
2021/09/06 09:39:25;;;;;;;12.73;6.10;;;;;;;;;;4933783;28;20063;-70
2021/09/06 09:42:05;;;;;;;13.25;5.85;;;;;;;;;;4935216;29;20055;-70
2021/09/06 09:44:31;;;;;;;11.20;6.03;;;;;;;;;;4951954;28;20465;-72
2021/09/06 09:47:14;;;;;;;16.92;6.45;;;;;;;;;;4951015;28;20035;-75
2021/09/06 09:49:43;;;;;;;14.13;6.25;;;;;;;;;;4955071;28;20054;-72
2021/09/06 09:52:23;;;;;;;12.07;6.53;;;;;;;;;;4964024;28;20465;-78
2021/09/06 09:54:53;;;;;;;11.60;5.85;;;;;;;;;;4969952;28;20027;-72
2021/09/06 09:57:30;;;;;;;13.43;6.18;;;;;;;;;;4968301;28;20094;-72
2021/09/06 09:59:56;;;;;;;14.27;6.07;;;;;;;;;;4972832;28;20030;-74
2021/09/06 10:02:28;;;;;;;12.07;6.03;;;;;;;;;;4972448;28;20038;-74
2021/09/06 10:04:55;;;;;;;10.43;6.22;;;;;;;;;;4972758;28;20109;-75
2021/09/06 10:07:24;;;;;;;15.30;6.15;;;;;;;;;;4970779;28;20556;-74
2021/09/06 10:09:51;;;;;;;13.93;5.63;;;;;;;;;;4967474;28;20100;-75
2021/09/06 10:12:24;;;;;;;12.02;5.85;;;;;;;;;;4959413;28;20082;-76
2021/09/06 10:14:51;;;;;;;12.02;5.88;;;;;;;;;;4973146;28;20037;-75
2021/09/06 10:17:18;;;;;;;11.05;6.65;;;;;;;;;;4971443;28;20115;-73
2021/09/06 10:19:45;;;;;;;15.98;5.70;;;;;;;;;;4972106;28;20027;-75
2021/09/06 10:22:25;;;;;;;12.88;5.72;;;;;;;;;;4972337;28;20098;-74
2021/09/06 10:25:01;;;;;;;11.73;6.50;;;;;;;;;;4972655;28;20030;-72
2021/09/06 10:27:31;;;;;;;14.68;6.40;;;;;;;;;;4967617;28;20098;-74
2021/09/06 10:30:00;;;;;;;13.85;5.95;;;;;;;;;;4972044;28;20069;-71
2021/09/06 10:32:49;;;;;;;9.75;5.80;;;;;;;;;;4965124;28;20035;-73
2021/09/06 10:35:17;;;;;;;10.52;5.50;;;;;;;;;;4931859;29;20139;-73
2021/09/06 10:37:46;;;;;;;8.40;6.15;;;;;;;;;;4930510;29;20047;-70
2021/09/06 10:40:41;;;;;;;13.48;5.78;;;;;;;;;;4928583;29;20040;-71
2021/09/06 10:43:20;;;;;;;14.43;5.30;;;;;;;;;;4931905;29;20080;-69
2021/09/06 10:45:47;;;;;;;10.88;5.72;;;;;;;;;;4932322;29;20048;-70
2021/09/06 10:48:27;;;;;;;9.82;5.97;;;;;;;;;;4932020;29;20032;-68
2021/09/06 10:50:54;;;;;;;9.95;5.47;;;;;;;;;;4932763;29;20063;-67
2021/09/06 10:53:21;;;;;;;12.07;5.50;;;;;;;;;;4931348;29;20043;-67
2021/09/06 10:55:48;;;;;;;19.73;6.20;;;;;;;;;;4931545;29;20096;-73
2021/09/06 10:58:15;;;;;;;10.18;6.00;;;;;;;;;;4947300;29;20107;-73
2021/09/06 11:00:41;;;;;;;11.88;6.10;;;;;;;;;;4937421;29;20019;-71
2021/09/06 11:03:17;;;;;;;13.05;6.05;;;;;;;;;;4934546;29;20040;-71
2021/09/06 11:06:13;;;;;;;11.25;6.65;;;;;;;;;;4936995;29;20059;-71
2021/09/06 11:08:44;;;;;;;9.95;5.90;;;;;;;;;;4895469;29;20140;-70
2021/09/06 11:11:31;;;;;;;14.02;5.95;;;;;;;;;;4882879;29;20033;-70
2021/09/06 11:14:00;;;;;;;9.40;5.60;;;;;;;;;;4879986;29;20044;-72
2021/09/06 11:16:43;;;;;;;11.50;5.90;;;;;;;;;;4879082;29;20417;-71
2021/09/06 11:19:21;;;;;;;9.63;6.53;;;;;;;;;;4883804;29;20036;-70
2021/09/06 11:22:06;;;;;;;12.45;5.55;;;;;;;;;;4896367;29;20519;-73
2021/09/06 11:24:32;;;;;;;10.20;6.22;;;;;;;;;;4897142;29;20119;-70
2021/09/06 11:26:58;;;;;;;9.32;5.70;;;;;;;;;;4886325;29;20055;-72
2021/09/06 11:32:36;;;;;;;12.93;6.03;;;;;;;;;;4896170;29;20072;-71
2021/09/06 11:35:13;;;;;;;8.70;5.85;;;;;;;;;;4870909;29;20143;-71
2021/09/06 11:37:52;;;;;;;11.27;6.35;;;;;;;;;;4875496;29;20059;-69
2021/09/06 11:40:18;;;;;;;10.45;5.40;;;;;;;;;;4886469;29;20036;-74
2021/09/06 11:42:53;;;;;;;13.73;6.18;;;;;;;;;;4869511;29;20029;-73
2021/09/06 11:45:24;;;;;;;18.83;6.18;;;;;;;;;;4944842;28;20039;-72
2021/09/06 11:48:14;;;;;;;9.75;5.60;;;;;;;;;;4974960;28;20031;-73
2021/09/06 11:53:37;;;;;;;21.27;6.55;;;;;;;;;;4962892;28;20130;-75
2021/09/06 11:56:03;;;;;;;12.95;6.07;;;;;;;;;;4975177;28;20603;-74
2021/09/06 11:58:30;;;;;;;8.63;5.75;;;;;;;;;;4961571;28;20493;-76
2021/09/06 12:01:04;;;;;;;21.02;6.28;;;;;;;;;;4984896;28;20034;-73
2021/09/06 12:03:30;;;;;;;9.57;5.95;;;;;;;;;;4974215;28;20053;-70
2021/09/06 12:06:06;;;;;;;10.13;5.82;;;;;;;;;;4975195;28;20110;-73
2021/09/06 12:08:33;;;;;;;10.23;5.85;;;;;;;;;;4974451;28;20054;-78
2021/09/06 12:11:10;;;;;;;11.80;5.50;;;;;;;;;;4969810;28;20023;-75
2021/09/06 12:13:37;;;;;;;7.70;5.63;;;;;;;;;;4970996;28;20031;-75
2021/09/06 12:16:04;;;;;;;10.43;5.93;;;;;;;;;;4974976;28;20519;-72
2021/09/06 12:18:35;;;;;;;11.75;5.60;;;;;;;;;;4974673;28;20041;-76
2021/09/06 12:21:05;;;;;;;7.70;5.78;;;;;;;;;;4973911;28;20412;-74
2021/09/06 12:23:33;;;;;;;10.63;5.75;;;;;;;;;;4965601;28;20031;-75
2021/09/06 12:25:59;;;;;;;12.05;5.88;;;;;;;;;;4974125;28;20066;-74
2021/09/06 12:28:25;;;;;;;10.10;5.72;;;;;;;;;;4974626;28;20038;-74
2021/09/06 12:30:59;;;;;;;12.80;6.00;;;;;;;;;;4974021;28;20130;-75
2021/09/06 12:33:25;;;;;;;12.32;5.93;;;;;;;;;;4968533;28;20035;-74
2021/09/06 12:35:51;;;;;;;10.68;6.00;;;;;;;;;;4974320;28;20117;-74
2021/09/06 12:38:17;;;;;;;10.60;5.35;;;;;;;;;;4974163;28;20023;-73
2021/09/06 12:40:43;;;;;;;9.82;5.47;;;;;;;;;;4973822;28;20034;-69
2021/09/06 12:43:09;;;;;;;11.60;6.18;;;;;;;;;;4974143;28;20377;-64
2021/09/06 12:45:36;;;;;;;9.52;5.88;;;;;;;;;;4973531;28;20452;-69
2021/09/06 12:48:02;;;;;;;9.38;5.60;;;;;;;;;;4974073;28;20023;-66
2021/09/06 12:50:28;;;;;;;9.93;5.40;;;;;;;;;;4968824;28;20401;-73
2021/09/06 12:52:54;;;;;;;8.57;5.28;;;;;;;;;;4973305;28;20113;-75
2021/09/06 12:55:21;;;;;;;10.93;5.90;;;;;;;;;;4968356;28;20101;-74
2021/09/06 12:57:47;;;;;;;14.10;6.00;;;;;;;;;;4973126;28;20033;-73
2021/09/06 13:00:13;;;;;;;9.82;5.38;;;;;;;;;;4973821;28;20039;-73
2021/09/06 13:02:40;;;;;;;10.05;5.68;;;;;;;;;;4968811;28;20031;-76
2021/09/06 13:05:06;;;;;;;13.57;6.53;;;;;;;;;;4952735;28;20035;-75
2021/09/06 13:07:33;;;;;;;9.40;5.72;;;;;;;;;;4969757;28;20792;-73
2021/09/06 13:09:59;;;;;;;10.50;5.40;;;;;;;;;;4954461;28;20046;-76
2021/09/06 13:12:25;;;;;;;8.20;5.60;;;;;;;;;;4970950;28;20488;-74
2021/09/06 13:14:51;;;;;;;11.50;5.43;;;;;;;;;;4964004;28;20034;-74
2021/09/06 13:17:18;;;;;;;8.23;5.60;;;;;;;;;;4975132;28;20030;-73
2021/09/06 13:19:47;;;;;;;9.63;5.60;;;;;;;;;;4952980;28;20396;-72
2021/09/06 13:22:15;;;;;;;11.90;5.75;;;;;;;;;;4949553;28;20030;-72
2021/09/06 13:24:41;;;;;;;13.82;5.70;;;;;;;;;;4963714;28;20026;-74
2021/09/06 13:27:07;;;;;;;10.63;5.50;;;;;;;;;;4969683;28;20038;-71
2021/09/06 13:29:33;;;;;;;23.38;6.22;;;;;;;;;;4972061;28;20500;-71
2021/09/06 13:32:03;;;;;;;10.20;5.70;;;;;;;;;;4979419;28;20106;-75
2021/09/06 13:34:29;;;;;;;8.85;5.40;;;;;;;;;;4969135;28;20542;-74
2021/09/06 13:36:55;;;;;;;12.32;5.70;;;;;;;;;;4977634;28;20612;-73
2021/09/06 13:39:21;;;;;;;11.43;6.00;;;;;;;;;;4970306;28;20035;-71
2021/09/06 13:41:47;;;;;;;11.77;5.85;;;;;;;;;;4968819;28;20101;-72
2021/09/06 13:44:13;;;;;;;13.00;6.13;;;;;;;;;;4970987;28;20476;-72
2021/09/06 13:46:50;;;;;;;13.95;5.85;;;;;;;;;;4971402;28;20058;-73
2021/09/06 13:49:16;;;;;;;8.20;5.65;;;;;;;;;;4952996;28;20035;-73
2021/09/06 13:51:42;;;;;;;13.27;6.03;;;;;;;;;;4971031;28;20547;-73
2021/09/06 13:54:08;;;;;;;9.30;5.90;;;;;;;;;;4971537;28;20066;-73
2021/09/06 13:56:35;;;;;;;11.70;5.40;;;;;;;;;;4963972;28;20027;-74
2021/09/06 13:59:02;;;;;;;20.02;6.28;;;;;;;;;;4971765;28;20023;-73
2021/09/06 14:01:32;;;;;;;8.15;5.80;;;;;;;;;;4970321;28;20031;-74
2021/09/06 14:03:58;;;;;;;12.95;5.75;;;;;;;;;;4956515;28;20038;-73
2021/09/06 14:06:24;;;;;;;9.65;5.55;;;;;;;;;;4971106;28;20050;-75
2021/09/06 14:08:50;;;;;;;12.38;5.50;;;;;;;;;;4971471;28;20081;-75
2021/09/06 14:11:16;;;;;;;10.77;5.30;;;;;;;;;;4970933;28;20027;-72
2021/09/06 14:13:42;;;;;;;11.45;5.78;;;;;;;;;;4972875;28;20505;-72
2021/09/06 14:16:08;;;;;;;9.80;5.65;;;;;;;;;;4973024;28;20097;-72
2021/09/06 14:18:34;;;;;;;16.60;6.20;;;;;;;;;;4960449;28;20031;-75
2021/09/06 14:21:01;;;;;;;17.50;5.72;;;;;;;;;;4970166;28;20026;-72
2021/09/06 14:23:27;;;;;;;13.57;5.75;;;;;;;;;;4972587;28;20037;-74
2021/09/06 14:25:56;;;;;;;11.38;5.82;;;;;;;;;;4976233;28;20021;-74
2021/09/06 14:28:22;;;;;;;10.18;5.50;;;;;;;;;;4982787;28;20041;-75
2021/09/06 14:30:48;;;;;;;12.48;6.00;;;;;;;;;;4972751;28;20043;-74
2021/09/06 14:33:14;;;;;;;11.27;5.80;;;;;;;;;;4974547;28;20078;-73
2021/09/06 14:35:42;;;;;;;16.45;6.22;;;;;;;;;;4976854;28;20083;-73
2021/09/06 14:38:28;;;;;;;63.00;8.55;;;;;;;;;;4984151;28;20027;-73
2021/09/06 14:40:55;;;;;;;14.55;6.10;;;;;;;;;;4974882;28;20147;-73
2021/09/06 14:43:21;;;;;;;13.57;5.45;;;;;;;;;;4976574;28;20023;-72
2021/09/06 14:45:47;;;;;;;62.50;8.43;;;;;;;;;;4976786;28;20524;-73
2021/09/06 14:48:13;;;;;;;10.80;5.43;;;;;;;;;;4976622;28;20370;-70
2021/09/06 14:50:39;;;;;;;9.63;5.03;;;;;;;;;;4975448;28;20046;-72
2021/09/06 14:53:05;;;;;;;23.98;6.22;;;;;;;;;;4973993;28;20035;-73
2021/09/06 14:55:31;;;;;;;15.32;5.72;;;;;;;;;;4973742;28;20075;-72
2021/09/06 14:57:57;;;;;;;9.90;6.15;;;;;;;;;;4971270;28;20045;-72
2021/09/06 15:00:37;;;;;;;18.52;5.78;;;;;;;;;;4977014;28;20035;-73
2021/09/06 15:03:03;;;;;;;11.57;5.85;;;;;;;;;;4972059;28;20039;-71
2021/09/06 15:05:37;;;;;;;11.18;5.90;;;;;;;;;;4962004;28;20150;-71
2021/09/06 15:08:04;;;;;;;9.70;5.93;;;;;;;;;;4973091;28;20535;-74
2021/09/06 15:10:31;;;;;;;14.70;5.97;;;;;;;;;;4972928;28;20507;-71
2021/09/06 15:12:57;;;;;;;14.27;5.95;;;;;;;;;;4974614;28;20023;-73
2021/09/06 15:15:23;;;;;;;11.57;5.78;;;;;;;;;;4974311;28;20448;-74
2021/09/06 15:17:49;;;;;;;20.52;6.07;;;;;;;;;;4976413;28;20428;-73
2021/09/06 15:20:18;;;;;;;13.52;5.93;;;;;;;;;;4975780;28;20035;-73